Time;durP1;ratioP1;P1;durP2;ratioP2;P2;SDS_P1;SDS_P2;PMS_P1;PMS_P2;Temp;Humidity;BMP_temperature;BMP_pressure;BME280_temperature;BME280_humidity;BME280_pressure;Samples;Min_cycle;Max_cycle;Signal;HPM_P1;HPM_P2
2021/06/22 00:02:25;;;;;;;25.73;15.50;;;25.50;95.80;;;;;;6303001;28;20241;-66
2021/06/22 00:05:30;;;;;;;25.33;14.93;;;25.50;95.70;;;;;;6302393;28;20230;-65
2021/06/22 00:08:33;;;;;;;23.67;15.30;;;25.50;95.80;;;;;;6302846;28;20280;-65
2021/06/22 00:11:39;;;;;;;26.30;15.57;;;25.50;95.70;;;;;;6302365;28;20563;-65
2021/06/22 00:14:44;;;;;;;20.30;16.93;;;25.50;95.80;;;;;;6302414;28;20665;-65
2021/06/22 00:17:48;;;;;;;17.90;15.67;;;25.50;95.80;;;;;;6302408;28;20662;-65
2021/06/22 00:20:51;;;;;;;19.60;15.37;;;25.50;95.80;;;;;;6302129;28;20235;-65
2021/06/22 00:23:55;;;;;;;19.87;15.23;;;25.40;96.00;;;;;;6302245;28;20230;-65
2021/06/22 00:26:58;;;;;;;20.53;15.77;;;25.40;96.10;;;;;;6301985;28;20226;-65
2021/06/22 00:30:04;;;;;;;20.77;14.50;;;25.40;96.10;;;;;;6302017;28;20233;-65
2021/06/22 00:33:07;;;;;;;17.73;13.67;;;25.40;96.10;;;;;;6301885;28;20704;-65
2021/06/22 00:36:10;;;;;;;23.00;15.97;;;25.40;96.00;;;;;;6302112;28;20241;-65
2021/06/22 00:39:13;;;;;;;18.97;15.13;;;25.30;96.00;;;;;;6301637;28;20274;-65
2021/06/22 00:42:17;;;;;;;22.97;14.27;;;25.30;96.00;;;;;;6301740;28;20689;-67
2021/06/22 00:45:28;;;;;;;17.90;14.70;;;25.20;96.00;;;;;;6301672;28;20231;-65
2021/06/22 00:48:32;;;;;;;21.63;15.57;;;25.20;96.20;;;;;;6301884;28;20305;-65
2021/06/22 00:51:36;;;;;;;22.37;15.30;;;25.10;96.30;;;;;;6300960;28;20245;-66
2021/06/22 00:54:39;;;;;;;19.10;14.77;;;25.00;96.50;;;;;;6301768;28;20199;-62
2021/06/22 00:57:43;;;;;;;20.57;16.23;;;25.00;96.50;;;;;;6300937;28;20247;-64
2021/06/22 01:00:48;;;;;;;19.93;14.03;;;25.00;96.80;;;;;;6301199;28;20685;-68
2021/06/22 01:03:52;;;;;;;30.53;15.90;;;24.90;96.70;;;;;;6301315;28;20237;-67
2021/06/22 01:06:55;;;;;;;21.10;13.50;;;24.70;96.80;;;;;;6300960;28;20227;-66
2021/06/22 01:09:58;;;;;;;23.50;15.70;;;24.70;97.10;;;;;;6301344;28;20344;-66
2021/06/22 01:13:01;;;;;;;23.93;14.17;;;24.60;97.40;;;;;;6301047;28;20223;-66
2021/06/22 01:16:06;;;;;;;22.80;14.53;;;24.60;97.50;;;;;;6300846;28;20681;-65
2021/06/22 01:19:10;;;;;;;21.17;15.97;;;24.60;97.50;;;;;;6300676;28;20283;-65
2021/06/22 01:22:15;;;;;;;25.00;15.53;;;24.60;97.50;;;;;;6301147;28;20238;-65
2021/06/22 01:25:18;;;;;;;19.90;14.30;;;24.50;97.60;;;;;;6300399;28;20227;-66
2021/06/22 01:28:22;;;;;;;20.00;14.67;;;24.50;97.90;;;;;;6300907;28;20309;-66
2021/06/22 01:31:25;;;;;;;24.37;15.33;;;24.50;98.00;;;;;;6300552;28;20542;-67
2021/06/22 01:34:31;;;;;;;23.20;14.33;;;24.40;98.10;;;;;;6300727;28;20226;-67
2021/06/22 01:37:35;;;;;;;24.43;14.50;;;24.40;98.20;;;;;;6300343;28;20234;-67
2021/06/22 01:40:46;;;;;;;16.50;13.77;;;24.40;98.40;;;;;;6300573;28;20235;-66
2021/06/22 01:43:49;;;;;;;22.23;14.20;;;24.40;98.40;;;;;;6300090;28;20227;-65
2021/06/22 01:46:52;;;;;;;22.90;14.87;;;24.50;98.10;;;;;;6300263;28;20227;-66
2021/06/22 01:50:00;;;;;;;20.40;15.60;;;24.40;98.10;;;;;;6300784;28;20249;-66
2021/06/22 01:53:04;;;;;;;20.07;12.87;;;24.30;98.30;;;;;;6299564;28;20253;-62
2021/06/22 01:56:11;;;;;;;23.97;15.70;;;24.30;98.40;;;;;;6300113;28;20257;-64
2021/06/22 01:59:15;;;;;;;29.00;13.93;;;24.30;98.60;;;;;;6299567;28;20241;-64
2021/06/22 02:02:18;;;;;;;26.83;16.20;;;24.20;98.50;;;;;;6295009;28;20241;-64
2021/06/22 02:05:21;;;;;;;23.50;14.90;;;24.20;98.60;;;;;;6299572;28;20246;-62
2021/06/22 02:08:27;;;;;;;24.20;14.97;;;24.20;98.70;;;;;;6299827;28;20563;-63
2021/06/22 02:11:30;;;;;;;22.60;15.13;;;24.10;98.70;;;;;;6299578;28;20234;-66
2021/06/22 02:14:33;;;;;;;24.10;15.27;;;24.00;98.80;;;;;;6299855;28;20226;-65
2021/06/22 02:17:37;;;;;;;27.30;15.77;;;23.90;98.90;;;;;;6299358;28;20239;-64
2021/06/22 02:20:41;;;;;;;28.37;15.40;;;23.80;98.90;;;;;;6299772;28;20245;-67
2021/06/22 02:23:46;;;;;;;18.90;14.73;;;23.60;99.40;;;;;;6298987;28;20223;-68
2021/06/22 02:26:49;;;;;;;29.90;15.20;;;23.40;99.70;;;;;;6299693;28;20230;-67
2021/06/22 02:29:52;;;;;;;30.10;15.40;;;23.20;99.90;;;;;;6299062;28;20234;-67
2021/06/22 02:32:55;;;;;;;26.23;15.87;;;23.10;99.90;;;;;;6299656;28;20250;-68
2021/06/22 02:35:59;;;;;;;19.90;14.87;;;23.10;99.90;;;;;;6299580;28;20231;-68
2021/06/22 02:39:04;;;;;;;24.53;16.30;;;23.00;99.90;;;;;;6299441;28;20231;-68
2021/06/22 02:42:08;;;;;;;24.70;14.57;;;23.00;99.90;;;;;;6299388;28;20678;-68
2021/06/22 02:45:12;;;;;;;24.97;14.90;;;22.90;99.90;;;;;;6299200;28;20716;-67
2021/06/22 02:48:16;;;;;;;19.63;15.77;;;23.00;99.90;;;;;;6299232;28;20223;-68
2021/06/22 02:51:19;;;;;;;24.33;15.63;;;22.90;99.90;;;;;;6298693;28;20309;-66
2021/06/22 02:54:23;;;;;;;21.37;15.13;;;23.00;99.90;;;;;;6298099;28;20234;-65
2021/06/22 02:57:27;;;;;;;27.37;17.20;;;23.00;99.90;;;;;;6298559;28;20561;-65
2021/06/22 03:00:32;;;;;;;28.97;16.60;;;23.10;99.90;;;;;;6299038;28;20227;-66
2021/06/22 03:03:36;;;;;;;24.90;15.37;;;23.20;99.90;;;;;;6298335;28;20217;-66
2021/06/22 03:06:39;;;;;;;24.20;15.13;;;23.10;99.90;;;;;;6298502;28;20229;-66
2021/06/22 03:09:43;;;;;;;17.67;15.20;;;23.10;99.90;;;;;;6298713;28;20234;-66
2021/06/22 03:12:47;;;;;;;23.53;14.30;;;23.20;99.90;;;;;;6299352;28;20222;-67
2021/06/22 03:15:50;;;;;;;26.90;15.40;;;23.10;99.90;;;;;;6298312;28;20225;-66
2021/06/22 03:18:54;;;;;;;25.60;14.93;;;23.10;99.90;;;;;;6299014;28;20230;-66
2021/06/22 03:21:57;;;;;;;24.03;15.70;;;23.20;99.90;;;;;;6298224;28;20237;-62
2021/06/22 03:25:02;;;;;;;26.73;16.07;;;23.20;99.90;;;;;;6298582;28;20223;-61
2021/06/22 03:28:06;;;;;;;24.23;15.73;;;23.20;99.90;;;;;;6298551;28;20565;-61
2021/06/22 03:31:09;;;;;;;36.13;15.47;;;23.20;99.90;;;;;;6297644;28;20242;-66
2021/06/22 03:34:12;;;;;;;27.43;15.70;;;23.20;99.90;;;;;;6299591;28;20602;-61
2021/06/22 03:37:15;;;;;;;22.97;14.93;;;23.20;99.90;;;;;;6303185;28;20223;-60
2021/06/22 03:40:21;;;;;;;20.53;15.30;;;23.20;99.90;;;;;;6303421;28;20310;-61
2021/06/22 03:43:24;;;;;;;17.63;14.83;;;23.20;99.90;;;;;;6302783;28;20227;-61
2021/06/22 03:46:28;;;;;;;24.47;16.33;;;23.20;99.90;;;;;;6303543;28;20226;-60
2021/06/22 03:49:31;;;;;;;21.33;14.53;;;23.30;99.90;;;;;;6302292;28;20667;-61
2021/06/22 03:52:35;;;;;;;24.53;15.23;;;23.30;99.90;;;;;;6302697;28;20673;-61
2021/06/22 03:55:39;;;;;;;22.87;14.70;;;23.30;99.90;;;;;;6302557;28;20581;-61
2021/06/22 03:58:43;;;;;;;29.67;16.43;;;23.40;99.90;;;;;;6302654;28;20231;-60
2021/06/22 04:01:46;;;;;;;18.40;15.33;;;23.40;99.90;;;;;;6302488;28;20238;-61
2021/06/22 04:04:49;;;;;;;21.37;15.50;;;23.40;99.90;;;;;;6302950;28;20230;-60
2021/06/22 04:07:52;;;;;;;27.20;17.27;;;23.40;99.90;;;;;;6303312;28;20241;-61
2021/06/22 04:10:57;;;;;;;21.03;16.30;;;23.30;99.90;;;;;;6293029;28;20239;-61
2021/06/22 04:14:00;;;;;;;21.73;15.93;;;23.40;99.90;;;;;;6302678;28;20235;-60
2021/06/22 04:17:04;;;;;;;20.60;15.60;;;23.40;99.90;;;;;;6302203;28;20223;-60
2021/06/22 04:20:09;;;;;;;22.77;16.00;;;23.40;99.90;;;;;;6302366;28;20233;-61
2021/06/22 04:23:12;;;;;;;21.00;15.70;;;23.50;99.90;;;;;;6302159;28;20227;-60
2021/06/22 04:26:17;;;;;;;22.63;15.60;;;23.60;99.90;;;;;;6302443;28;20230;-61
2021/06/22 04:29:20;;;;;;;25.20;14.37;;;23.60;99.90;;;;;;6301790;28;20226;-61
2021/06/22 04:32:23;;;;;;;23.37;14.53;;;23.60;99.90;;;;;;6302068;28;20227;-60
2021/06/22 04:35:29;;;;;;;24.43;15.73;;;23.70;99.90;;;;;;6301756;28;20265;-60
2021/06/22 04:38:32;;;;;;;27.63;15.47;;;23.80;99.90;;;;;;6301800;28;20740;-61
2021/06/22 04:41:37;;;;;;;16.70;14.27;;;24.00;99.90;;;;;;6301606;28;20235;-60
2021/06/22 04:44:41;;;;;;;19.77;14.70;;;24.00;99.90;;;;;;6301790;28;20223;-61
2021/06/22 04:47:44;;;;;;;21.40;15.43;;;24.10;99.90;;;;;;6301292;28;20226;-61
2021/06/22 04:50:48;;;;;;;19.30;15.53;;;24.20;99.90;;;;;;6301539;28;20253;-61
2021/06/22 04:53:51;;;;;;;23.00;14.60;;;24.30;99.60;;;;;;6301442;28;20230;-61
2021/06/22 04:56:56;;;;;;;21.17;15.10;;;24.40;99.20;;;;;;6301261;28;20241;-61
2021/06/22 04:59:59;;;;;;;22.23;14.77;;;24.60;98.90;;;;;;6301419;28;20686;-60
2021/06/22 05:03:03;;;;;;;21.97;14.00;;;24.70;98.90;;;;;;6300911;28;20598;-61
2021/06/22 05:06:06;;;;;;;25.57;14.40;;;24.80;98.30;;;;;;6301454;28;20560;-61
2021/06/22 05:09:09;;;;;;;19.80;13.93;;;24.90;98.00;;;;;;6300930;28;20237;-61
2021/06/22 05:12:14;;;;;;;23.97;13.33;;;25.00;97.70;;;;;;6301258;28;20223;-61
2021/06/22 05:15:18;;;;;;;24.33;14.40;;;25.10;97.30;;;;;;6296317;28;20241;-61
2021/06/22 05:18:22;;;;;;;17.33;13.30;;;25.30;97.10;;;;;;6300850;28;20627;-61
2021/06/22 05:21:25;;;;;;;18.50;13.30;;;25.50;96.80;;;;;;6300456;28;20226;-61
2021/06/22 05:24:28;;;;;;;18.47;14.13;;;25.60;96.50;;;;;;6301922;28;20198;-61
2021/06/22 05:27:33;;;;;;;21.33;15.03;;;25.80;96.10;;;;;;6300496;28;20510;-61
2021/06/22 05:30:36;;;;;;;24.60;14.83;;;25.90;95.90;;;;;;6300954;28;20218;-60
2021/06/22 05:33:40;;;;;;;21.80;14.40;;;25.90;95.60;;;;;;6300794;28;20214;-60
2021/06/22 05:36:43;;;;;;;22.50;14.30;;;26.00;95.30;;;;;;6300873;28;20226;-61
2021/06/22 05:39:46;;;;;;;22.47;14.23;;;26.20;95.40;;;;;;6300446;28;20241;-61
2021/06/22 05:42:51;;;;;;;20.63;12.47;;;26.30;95.10;;;;;;6300557;28;20234;-60
2021/06/22 05:45:55;;;;;;;23.60;14.50;;;26.50;94.60;;;;;;6300391;28;20580;-62
2021/06/22 05:48:58;;;;;;;17.07;12.20;;;26.70;94.30;;;;;;6299986;28;20226;-60
2021/06/22 05:52:02;;;;;;;15.73;12.97;;;26.90;93.40;;;;;;6300181;28;20234;-66
2021/06/22 05:55:16;;;;;;;22.23;13.77;;;26.90;92.60;;;;;;6300363;28;20241;-65
2021/06/22 05:58:20;;;;;;;27.13;13.20;;;27.00;92.20;;;;;;6299378;28;20233;-60
2021/06/22 06:01:24;;;;;;;24.30;14.20;;;27.20;91.70;;;;;;6299651;28;20242;-64
2021/06/22 06:04:28;;;;;;;18.33;14.37;;;27.20;91.60;;;;;;6300236;28;20360;-67
2021/06/22 06:07:32;;;;;;;22.10;13.53;;;27.40;91.30;;;;;;6299919;28;20238;-67
2021/06/22 06:10:35;;;;;;;25.20;12.80;;;27.60;90.60;;;;;;6300108;28;20680;-65
2021/06/22 06:13:40;;;;;;;21.30;11.90;;;27.80;90.50;;;;;;6299644;28;20573;-67
2021/06/22 06:16:43;;;;;;;20.50;12.70;;;28.20;89.60;;;;;;6300078;28;20222;-67
2021/06/22 06:19:47;;;;;;;25.23;12.77;;;28.60;87.00;;;;;;6265769;28;20222;-61
2021/06/22 06:22:50;;;;;;;19.77;12.30;;;29.20;84.10;;;;;;6287751;28;20700;-67
2021/06/22 06:25:54;;;;;;;24.30;14.27;;;29.90;81.70;;;;;;6273711;28;20237;-62
2021/06/22 06:29:05;;;;;;;21.13;12.73;;;30.60;78.90;;;;;;6279995;28;20250;-62
2021/06/22 06:32:08;;;;;;;19.55;12.63;;;31.30;76.50;;;;;;6287184;28;20556;-65
2021/06/22 06:35:13;;;;;;;22.75;11.68;;;31.90;73.80;;;;;;6291013;28;20228;-65
2021/06/22 06:38:16;;;;;;;23.02;13.05;;;32.60;70.80;;;;;;6298133;28;20230;-65
2021/06/22 06:41:19;;;;;;;22.83;12.95;;;32.30;69.40;;;;;;6299174;28;20260;-65
2021/06/22 06:44:24;;;;;;;14.25;11.38;;;32.70;69.20;;;;;;6299351;28;20229;-67
2021/06/22 06:47:27;;;;;;;19.15;11.75;;;33.10;67.80;;;;;;6298933;28;20237;-65
2021/06/22 06:50:31;;;;;;;16.50;12.05;;;33.60;65.10;;;;;;6299262;28;20226;-64
2021/06/22 06:53:34;;;;;;;15.50;11.57;;;34.40;63.00;;;;;;6298737;28;20537;-64
2021/06/22 06:56:38;;;;;;;21.23;11.15;;;34.60;59.60;;;;;;6299290;28;20226;-65
2021/06/22 06:59:42;;;;;;;22.70;11.35;;;35.10;58.10;;;;;;6298641;28;20234;-64
2021/06/22 07:02:45;;;;;;;20.10;11.35;;;36.00;55.50;;;;;;6299166;28;20234;-64
2021/06/22 07:05:49;;;;;;;24.55;11.48;;;36.60;55.00;;;;;;6298930;28;20234;-64
2021/06/22 07:08:54;;;;;;;16.88;10.50;;;37.20;53.60;;;;;;6301429;28;20241;-64
2021/06/22 07:11:57;;;;;;;19.77;10.18;;;37.70;51.80;;;;;;6303852;28;20218;-65
2021/06/22 07:15:03;;;;;;;18.98;9.20;;;38.20;48.10;;;;;;6304418;28;20238;-64
2021/06/22 07:18:06;;;;;;;12.02;8.02;;;38.30;46.60;;;;;;6303895;28;20230;-64
2021/06/22 07:21:10;;;;;;;20.77;10.23;;;37.80;44.50;;;;;;6303715;28;20226;-63
2021/06/22 07:24:13;;;;;;;17.25;8.63;;;38.30;44.00;;;;;;6295035;28;20230;-64
2021/06/22 07:27:16;;;;;;;12.00;8.18;;;38.70;43.00;;;;;;6303333;28;20236;-64
2021/06/22 07:30:23;;;;;;;15.68;7.25;;;39.40;41.40;;;;;;6303833;28;20230;-64
2021/06/22 07:33:26;;;;;;;20.27;8.30;;;39.80;39.70;;;;;;6303151;28;20217;-64
2021/06/22 07:36:29;;;;;;;12.95;7.75;;;40.20;38.90;;;;;;6303477;28;20569;-64
2021/06/22 07:39:33;;;;;;;16.00;8.63;;;40.10;38.60;;;;;;6302992;28;20226;-64
2021/06/22 07:42:36;;;;;;;20.17;8.63;;;39.50;38.70;;;;;;6295600;28;20593;-64
2021/06/22 07:45:45;;;;;;;14.00;8.68;;;39.40;39.00;;;;;;6288114;28;20654;-64
2021/06/22 07:48:49;;;;;;;13.15;7.95;;;39.30;38.60;;;;;;6278976;28;20231;-64
2021/06/22 07:51:52;;;;;;;12.75;8.55;;;39.20;38.80;;;;;;6277930;28;20227;-64
2021/06/22 07:54:55;;;;;;;16.80;7.47;;;38.90;38.90;;;;;;6278028;28;20569;-64
2021/06/22 07:57:59;;;;;;;15.25;7.72;;;38.70;38.20;;;;;;6278078;28;20546;-64
2021/06/22 08:01:04;;;;;;;11.93;8.07;;;38.30;38.90;;;;;;6289993;28;20233;-63
2021/06/22 08:04:07;;;;;;;15.55;7.75;;;38.00;39.50;;;;;;6300441;28;20364;-66
2021/06/22 08:07:10;;;;;;;12.90;8.60;;;37.20;39.80;;;;;;6303156;28;20226;-66
2021/06/22 08:10:14;;;;;;;14.40;9.02;;;36.40;41.40;;;;;;6302425;28;20230;-65
2021/06/22 08:13:18;;;;;;;16.10;8.32;;;35.90;44.10;;;;;;6302614;28;20571;-65
2021/06/22 08:16:22;;;;;;;14.07;9.98;;;35.60;44.50;;;;;;6302307;28;20226;-69
2021/06/22 08:19:26;;;;;;;16.05;9.07;;;35.40;44.70;;;;;;6302136;28;20580;-67
2021/06/22 08:22:29;;;;;;;12.15;7.97;;;35.20;44.80;;;;;;6302298;28;20584;-70
2021/06/22 08:25:33;;;;;;;13.65;9.25;;;34.90;44.90;;;;;;6302648;28;20238;-66
2021/06/22 08:28:37;;;;;;;16.40;9.40;;;34.60;46.70;;;;;;6302002;28;20316;-65
2021/06/22 08:31:41;;;;;;;23.60;9.73;;;34.40;47.40;;;;;;6301883;28;20221;-67
2021/06/22 08:34:44;;;;;;;13.80;7.07;;;34.20;47.00;;;;;;6301951;28;20562;-69
2021/06/22 08:37:48;;;;;;;12.30;7.40;;;34.20;46.40;;;;;;6301772;28;20225;-69
2021/06/22 08:40:51;;;;;;;14.85;6.95;;;34.30;45.60;;;;;;6301887;28;20233;-66
2021/06/22 08:43:57;;;;;;;12.75;8.23;;;34.50;45.70;;;;;;6301845;28;20229;-69
2021/06/22 08:47:02;;;;;;;15.82;9.32;;;34.60;45.80;;;;;;6302079;28;20233;-67
2021/06/22 08:50:07;;;;;;;14.73;8.52;;;34.60;45.80;;;;;;6301787;28;20226;-68
2021/06/22 08:53:12;;;;;;;9.50;7.20;;;34.60;46.10;;;;;;6301495;28;20256;-66
2021/06/22 08:56:15;;;;;;;16.50;7.57;;;34.70;45.80;;;;;;6301633;28;20238;-67
2021/06/22 08:59:18;;;;;;;15.20;8.57;;;34.60;44.80;;;;;;6301598;28;20226;-67
2021/06/22 09:02:27;;;;;;;16.95;7.90;;;34.10;45.70;;;;;;6301955;28;20230;-70
2021/06/22 09:05:32;;;;;;;16.35;9.02;;;34.00;47.00;;;;;;6276595;28;20309;-70
2021/06/22 09:08:35;;;;;;;16.27;8.65;;;34.00;47.10;;;;;;6276304;28;20237;-70
2021/06/22 09:11:39;;;;;;;16.33;9.07;;;34.20;47.10;;;;;;6295537;28;20297;-70
2021/06/22 09:14:43;;;;;;;15.23;9.15;;;34.30;47.50;;;;;;6301190;28;20670;-66
2021/06/22 09:17:47;;;;;;;13.90;8.73;;;34.30;47.10;;;;;;6301110;28;20321;-66
2021/06/22 09:20:51;;;;;;;12.52;8.52;;;34.20;47.10;;;;;;6301025;28;20697;-68
2021/06/22 09:23:55;;;;;;;17.25;8.05;;;34.30;47.50;;;;;;6300912;28;20360;-70
2021/06/22 09:26:59;;;;;;;18.20;9.38;;;34.50;47.20;;;;;;6300471;28;20233;-69
2021/06/22 09:30:02;;;;;;;14.80;7.88;;;34.40;46.50;;;;;;6291155;28;20245;-66
2021/06/22 09:33:15;;;;;;;15.57;8.57;;;34.20;47.10;;;;;;6299197;28;20597;-71
2021/06/22 09:36:22;;;;;;;13.70;8.00;;;34.10;47.20;;;;;;6300117;28;20232;-68
2021/06/22 09:39:27;;;;;;;10.85;8.25;;;34.00;47.20;;;;;;6300046;28;20234;-67
2021/06/22 09:42:55;;;;;;;12.88;8.88;;;34.00;46.90;;;;;;6300413;28;20230;-70
2021/06/22 09:45:58;;;;;;;17.05;8.70;;;34.20;46.70;;;;;;6300140;28;20226;-70
2021/06/22 09:49:04;;;;;;;16.48;9.32;;;34.40;46.70;;;;;;6299282;28;20230;-70
2021/06/22 09:52:09;;;;;;;15.82;9.75;;;34.40;46.60;;;;;;6298340;28;20230;-66
2021/06/22 09:55:12;;;;;;;12.00;8.23;;;34.40;47.20;;;;;;6300150;28;20237;-71
2021/06/22 09:58:15;;;;;;;15.18;8.55;;;34.20;46.60;;;;;;6299941;28;20226;-66
2021/06/22 10:01:33;;;;;;;14.90;8.40;;;33.60;46.40;;;;;;6299868;28;20222;-70
2021/06/22 10:04:42;;;;;;;16.85;8.80;;;33.40;47.80;;;;;;6299539;28;20573;-75
2021/06/22 10:07:45;;;;;;;20.63;8.90;;;33.50;48.00;;;;;;6299670;28;20569;-71
2021/06/22 10:10:48;;;;;;;14.13;9.30;;;33.70;47.80;;;;;;6299231;28;20685;-67
2021/06/22 10:13:51;;;;;;;11.45;8.50;;;33.70;47.00;;;;;;6299246;28;20222;-69
2021/06/22 10:16:56;;;;;;;17.70;9.77;;;33.60;47.10;;;;;;6299602;28;20568;-69
2021/06/22 10:20:04;;;;;;;15.95;9.00;;;33.60;47.40;;;;;;6299136;28;20233;-69
2021/06/22 10:23:07;;;;;;;17.92;10.07;;;33.70;48.00;;;;;;6299138;28;20544;-70
2021/06/22 10:26:10;;;;;;;18.92;10.25;;;33.80;48.30;;;;;;6300852;28;20226;-65
2021/06/22 10:29:18;;;;;;;16.08;9.48;;;33.40;49.20;;;;;;6279339;28;20222;-66
2021/06/22 10:32:23;;;;;;;15.68;9.55;;;33.40;49.60;;;;;;6276833;28;20223;-66
2021/06/22 10:35:28;;;;;;;13.93;8.65;;;33.60;49.20;;;;;;6282823;28;20230;-66
2021/06/22 10:38:37;;;;;;;14.63;10.45;;;33.70;48.90;;;;;;6279446;28;20246;-66
2021/06/22 10:41:44;;;;;;;20.00;10.82;;;33.80;48.90;;;;;;6276504;28;20219;-67
2021/06/22 10:44:50;;;;;;;14.32;9.68;;;33.50;49.70;;;;;;6274146;28;20233;-67
2021/06/22 10:47:58;;;;;;;21.10;11.15;;;33.50;50.60;;;;;;6283614;28;20223;-67
2021/06/22 10:51:42;;;;;;;14.38;9.35;;;33.40;51.50;;;;;;6295785;28;20259;-67
2021/06/22 10:54:54;;;;;;;14.52;9.85;;;33.50;50.10;;;;;;6285370;28;20250;-66
2021/06/22 10:58:11;;;;;;;15.10;9.35;;;33.70;49.10;;;;;;6299267;28;20232;-67
2021/06/22 11:01:17;;;;;;;23.35;8.68;;;33.80;48.80;;;;;;6298638;28;20241;-66
2021/06/22 11:04:22;;;;;;;13.05;9.60;;;33.80;48.50;;;;;;6299072;28;20230;-66
2021/06/22 11:07:26;;;;;;;17.98;9.82;;;33.70;48.50;;;;;;6298883;28;20225;-66
2021/06/22 11:10:30;;;;;;;12.73;9.10;;;33.60;48.90;;;;;;6298770;28;20654;-66
2021/06/22 11:13:36;;;;;;;16.58;8.98;;;33.00;49.40;;;;;;6298771;28;20241;-66
2021/06/22 11:16:39;;;;;;;15.63;9.43;;;32.80;49.50;;;;;;6298778;28;20308;-66
2021/06/22 11:20:06;;;;;;;15.63;9.70;;;32.90;50.20;;;;;;6298678;28;20234;-66
2021/06/22 11:23:12;;;;;;;12.02;8.10;;;33.20;50.20;;;;;;6298853;28;20272;-66
2021/06/22 11:26:15;;;;;;;18.33;8.60;;;33.30;48.80;;;;;;6276148;28;20227;-66
2021/06/22 11:29:21;;;;;;;16.08;8.45;;;33.50;48.10;;;;;;6283208;28;20557;-66
2021/06/22 11:32:37;;;;;;;16.10;8.30;;;33.70;46.90;;;;;;6280924;28;20215;-66
2021/06/22 11:35:40;;;;;;;12.77;8.50;;;33.80;47.50;;;;;;6296013;28;20226;-67
2021/06/22 11:38:46;;;;;;;14.48;8.70;;;34.00;48.00;;;;;;6284204;28;20230;-66
2021/06/22 11:42:20;;;;;;;19.00;9.63;;;34.20;47.90;;;;;;6287322;28;20226;-66
2021/06/22 11:45:25;;;;;;;16.23;10.18;;;34.40;47.80;;;;;;6286572;28;20249;-67
2021/06/22 11:48:56;;;;;;;15.43;10.23;;;34.10;48.40;;;;;;6281618;28;20234;-67
2021/06/22 11:52:09;;;;;;;16.33;9.68;;;34.20;49.20;;;;;;6285428;28;20230;-66
2021/06/22 11:55:15;;;;;;;18.13;10.30;;;34.30;47.70;;;;;;6285090;28;20340;-68
2021/06/22 11:58:27;;;;;;;15.45;9.25;;;34.10;48.90;;;;;;6290034;28;20562;-69
2021/06/22 12:01:30;;;;;;;22.75;10.75;;;33.80;49.40;;;;;;6302801;28;20248;-71
2021/06/22 12:04:33;;;;;;;19.73;9.85;;;34.10;49.10;;;;;;6302511;28;20230;-62
2021/06/22 12:07:47;;;;;;;20.20;10.40;;;33.80;49.40;;;;;;6303002;28;20226;-60
2021/06/22 12:10:54;;;;;;;14.45;10.82;;;33.60;50.50;;;;;;6302314;28;20573;-60
2021/06/22 12:13:58;;;;;;;19.17;10.20;;;33.50;50.60;;;;;;6302347;28;20313;-62
2021/06/22 12:17:13;;;;;;;18.15;9.77;;;33.50;50.80;;;;;;6297709;28;20241;-62
2021/06/22 12:20:23;;;;;;;21.17;9.07;;;33.50;49.70;;;;;;6300997;28;20230;-62
2021/06/22 12:23:28;;;;;;;18.63;9.10;;;33.50;48.30;;;;;;6288225;28;20599;-64
2021/06/22 12:26:33;;;;;;;17.50;8.68;;;33.60;48.50;;;;;;6277745;28;20284;-63
2021/06/22 12:29:39;;;;;;;21.92;10.52;;;33.40;47.90;;;;;;6277045;28;20304;-65
2021/06/22 12:32:42;;;;;;;14.90;9.55;;;33.20;49.20;;;;;;6277327;28;20234;-63
2021/06/22 12:35:50;;;;;;;23.08;10.32;;;33.20;49.30;;;;;;6283239;28;20230;-63
2021/06/22 12:38:57;;;;;;;12.52;8.18;;;33.20;49.40;;;;;;6293338;28;20253;-63
2021/06/22 12:42:07;;;;;;;11.57;8.50;;;33.00;48.60;;;;;;6291147;28;20226;-64
2021/06/22 12:45:15;;;;;;;11.88;8.23;;;33.00;49.40;;;;;;6301791;28;20625;-64
2021/06/22 12:48:26;;;;;;;13.73;8.05;;;33.10;49.30;;;;;;6301332;28;20566;-63
2021/06/22 12:51:33;;;;;;;11.32;8.07;;;33.30;48.00;;;;;;6301697;28;20610;-63
2021/06/22 12:54:38;;;;;;;14.10;8.13;;;33.50;47.50;;;;;;6301566;28;20190;-64
2021/06/22 12:57:52;;;;;;;23.20;8.32;;;33.50;47.40;;;;;;6301289;28;20195;-62
2021/06/22 13:00:55;;;;;;;15.40;7.38;;;33.40;48.20;;;;;;6301242;28;20241;-63
2021/06/22 13:03:58;;;;;;;15.05;7.80;;;33.40;47.20;;;;;;6301342;28;20261;-63
2021/06/22 13:07:10;;;;;;;17.98;7.32;;;33.50;47.00;;;;;;6300781;28;20237;-63
2021/06/22 13:10:15;;;;;;;12.38;7.30;;;33.40;47.00;;;;;;6289134;28;20223;-61
2021/06/22 13:13:24;;;;;;;19.80;8.60;;;33.30;48.20;;;;;;6300931;28;20226;-61
2021/06/22 13:16:28;;;;;;;16.20;8.18;;;33.40;49.50;;;;;;6301326;28;20241;-61
2021/06/22 13:19:32;;;;;;;14.82;7.97;;;33.60;48.00;;;;;;6300450;28;20873;-60
2021/06/22 13:22:38;;;;;;;12.90;7.75;;;33.80;47.10;;;;;;6300913;28;20230;-63
2021/06/22 13:25:42;;;;;;;14.48;7.47;;;33.90;46.80;;;;;;6300644;28;20241;-63
2021/06/22 13:28:58;;;;;;;17.85;8.75;;;34.00;46.20;;;;;;6300766;28;20570;-62
2021/06/22 13:32:02;;;;;;;15.38;7.57;;;34.20;46.40;;;;;;6300628;28;20234;-62
2021/06/22 13:35:09;;;;;;;14.38;7.28;;;34.20;46.20;;;;;;6300855;28;20326;-62
2021/06/22 13:38:17;;;;;;;15.57;7.75;;;34.10;46.60;;;;;;6300196;28;20226;-63
2021/06/22 13:41:20;;;;;;;17.30;7.13;;;34.00;46.20;;;;;;6296895;28;20701;-63
2021/06/22 13:44:41;;;;;;;19.63;7.70;;;34.00;46.40;;;;;;6270894;28;20227;-62
2021/06/22 13:47:47;;;;;;;15.18;6.72;;;34.10;45.50;;;;;;6275419;28;20288;-63
2021/06/22 13:50:51;;;;;;;17.50;7.43;;;34.10;45.90;;;;;;6299409;28;20237;-63
2021/06/22 13:54:04;;;;;;;14.95;7.03;;;34.00;46.20;;;;;;6299358;28;20555;-64
2021/06/22 13:57:08;;;;;;;15.93;7.45;;;33.60;47.40;;;;;;6300160;28;20557;-63
2021/06/22 14:00:22;;;;;;;21.52;7.18;;;33.70;48.10;;;;;;6291325;28;20297;-63
2021/06/22 14:03:25;;;;;;;18.65;7.35;;;33.70;48.30;;;;;;6282003;28;20257;-63
2021/06/22 14:06:34;;;;;;;18.13;6.50;;;33.80;48.30;;;;;;6300318;28;20210;-64
2021/06/22 14:09:37;;;;;;;14.35;7.35;;;33.80;47.60;;;;;;6301940;28;20223;-63
2021/06/22 14:12:40;;;;;;;26.73;8.48;;;33.90;47.70;;;;;;6292849;28;20214;-61
2021/06/22 14:15:46;;;;;;;22.58;6.93;;;33.90;47.70;;;;;;6274518;28;20269;-63
2021/06/22 14:18:49;;;;;;;15.85;7.22;;;33.90;47.80;;;;;;6274616;28;20231;-61
2021/06/22 14:21:53;;;;;;;17.98;7.32;;;34.10;47.20;;;;;;6274328;28;20227;-63
2021/06/22 14:25:06;;;;;;;18.83;6.80;;;34.20;46.40;;;;;;6274634;28;20314;-60
2021/06/22 14:28:12;;;;;;;19.05;7.32;;;34.40;45.70;;;;;;6274258;28;20234;-63
2021/06/22 14:31:17;;;;;;;17.73;6.70;;;34.40;45.70;;;;;;6274783;28;20227;-60
2021/06/22 14:34:20;;;;;;;20.98;7.15;;;34.30;45.90;;;;;;6274402;28;20551;-62
2021/06/22 14:37:24;;;;;;;16.85;6.80;;;34.30;44.70;;;;;;6274130;28;20545;-61
2021/06/22 14:40:27;;;;;;;14.40;7.28;;;34.40;45.20;;;;;;6274338;28;20308;-63
2021/06/22 14:43:31;;;;;;;15.45;7.30;;;34.30;45.80;;;;;;6323291;28;20236;-61
2021/06/22 14:46:36;;;;;;;16.70;6.57;;;34.20;45.60;;;;;;6324274;28;20229;-62
2021/06/22 14:49:39;;;;;;;19.50;7.10;;;34.20;45.40;;;;;;6309241;28;20751;-62
2021/06/22 14:52:43;;;;;;;23.40;6.78;;;34.10;45.50;;;;;;6298947;28;20226;-61
2021/06/22 14:55:49;;;;;;;12.60;6.70;;;34.10;45.80;;;;;;6296007;28;20226;-61
2021/06/22 14:58:53;;;;;;;14.75;6.35;;;34.00;45.40;;;;;;6283767;28;20222;-61
2021/06/22 15:01:59;;;;;;;21.42;6.90;;;33.90;45.40;;;;;;6277718;28;20215;-61
2021/06/22 15:05:02;;;;;;;15.45;6.35;;;33.90;45.40;;;;;;6289990;28;20226;-60
2021/06/22 15:08:08;;;;;;;13.02;6.03;;;34.00;44.90;;;;;;6286292;28;20222;-63
2021/06/22 15:11:11;;;;;;;18.05;7.40;;;33.80;44.40;;;;;;6285109;28;20219;-62
2021/06/22 15:14:14;;;;;;;13.88;5.75;;;33.70;44.40;;;;;;6281687;28;20215;-61
2021/06/22 15:17:19;;;;;;;15.20;6.70;;;33.70;44.70;;;;;;6288460;28;20223;-62
2021/06/22 15:20:24;;;;;;;13.20;5.40;;;33.80;44.80;;;;;;6282024;28;20222;-61
2021/06/22 15:23:29;;;;;;;15.18;6.05;;;34.00;44.40;;;;;;6281342;28;20230;-61
2021/06/22 15:26:32;;;;;;;11.60;6.25;;;34.10;43.40;;;;;;6284159;28;20237;-62
2021/06/22 15:29:36;;;;;;;13.15;6.38;;;34.00;44.40;;;;;;6282299;28;20222;-61
2021/06/22 15:32:41;;;;;;;15.68;6.80;;;33.90;44.00;;;;;;6278829;28;20227;-61
2021/06/22 15:35:44;;;;;;;11.05;6.60;;;33.90;43.90;;;;;;6303177;28;20222;-61
2021/06/22 15:38:48;;;;;;;8.07;6.43;;;33.80;43.50;;;;;;6281942;28;20554;-62
2021/06/22 15:41:51;;;;;;;14.70;5.93;;;33.70;44.00;;;;;;6299313;28;20221;-61
2021/06/22 15:44:54;;;;;;;16.70;6.35;;;33.80;43.80;;;;;;6328390;28;20235;-62